sensor_id;sensor_type;location;lat;lon;timestamp;P1;durP1;ratioP1;P2;durP2;ratioP2
23362;SDS011;11853;48.080;11.960;2023-03-23T00:02:29;4.57;;;2.95;;
23362;SDS011;11853;48.080;11.960;2023-03-23T00:05:04;2.53;;;2.33;;
23362;SDS011;11853;48.080;11.960;2023-03-23T00:07:32;2.83;;;2.42;;
23362;SDS011;11853;48.080;11.960;2023-03-23T00:09:58;2.65;;;2.45;;
23362;SDS011;11853;48.080;11.960;2023-03-23T00:12:27;4.13;;;2.88;;
23362;SDS011;11853;48.080;11.960;2023-03-23T00:14:59;6.07;;;3.03;;
23362;SDS011;11853;48.080;11.960;2023-03-23T00:17:32;4.80;;;2.50;;
23362;SDS011;11853;48.080;11.960;2023-03-23T00:20:01;3.58;;;2.67;;
23362;SDS011;11853;48.080;11.960;2023-03-23T00:22:30;3.55;;;3.05;;
23362;SDS011;11853;48.080;11.960;2023-03-23T00:24:56;3.00;;;2.80;;
23362;SDS011;11853;48.080;11.960;2023-03-23T00:27:22;3.05;;;2.60;;
23362;SDS011;11853;48.080;11.960;2023-03-23T00:29:49;2.97;;;2.78;;
23362;SDS011;11853;48.080;11.960;2023-03-23T00:32:19;3.17;;;2.88;;
23362;SDS011;11853;48.080;11.960;2023-03-23T00:34:52;4.28;;;2.85;;
23362;SDS011;11853;48.080;11.960;2023-03-23T00:37:18;2.75;;;2.55;;
23362;SDS011;11853;48.080;11.960;2023-03-23T00:39:44;3.17;;;2.80;;
23362;SDS011;11853;48.080;11.960;2023-03-23T00:42:11;3.30;;;3.00;;
23362;SDS011;11853;48.080;11.960;2023-03-23T00:44:38;3.92;;;3.40;;
23362;SDS011;11853;48.080;11.960;2023-03-23T00:47:04;3.65;;;3.03;;
23362;SDS011;11853;48.080;11.960;2023-03-23T00:49:33;3.13;;;2.83;;
23362;SDS011;11853;48.080;11.960;2023-03-23T00:52:01;4.00;;;3.38;;
23362;SDS011;11853;48.080;11.960;2023-03-23T00:54:28;5.15;;;3.33;;
23362;SDS011;11853;48.080;11.960;2023-03-23T00:56:54;3.42;;;3.00;;
23362;SDS011;11853;48.080;11.960;2023-03-23T00:59:20;4.28;;;3.25;;
23362;SDS011;11853;48.080;11.960;2023-03-23T01:01:47;3.67;;;3.17;;
23362;SDS011;11853;48.080;11.960;2023-03-23T01:04:13;4.45;;;3.65;;
23362;SDS011;11853;48.080;11.960;2023-03-23T01:06:41;4.22;;;3.20;;
23362;SDS011;11853;48.080;11.960;2023-03-23T01:09:15;3.60;;;3.25;;
23362;SDS011;11853;48.080;11.960;2023-03-23T01:11:44;4.07;;;3.72;;
23362;SDS011;11853;48.080;11.960;2023-03-23T01:14:11;4.18;;;3.38;;
23362;SDS011;11853;48.080;11.960;2023-03-23T01:16:38;3.80;;;3.38;;
23362;SDS011;11853;48.080;11.960;2023-03-23T01:19:04;5.68;;;4.00;;
23362;SDS011;11853;48.080;11.960;2023-03-23T01:21:30;3.58;;;3.28;;
23362;SDS011;11853;48.080;11.960;2023-03-23T01:23:56;4.75;;;3.53;;
23362;SDS011;11853;48.080;11.960;2023-03-23T01:26:22;5.22;;;3.83;;
23362;SDS011;11853;48.080;11.960;2023-03-23T01:28:50;4.72;;;3.95;;
23362;SDS011;11853;48.080;11.960;2023-03-23T01:31:17;4.30;;;3.60;;
23362;SDS011;11853;48.080;11.960;2023-03-23T01:33:45;4.13;;;3.72;;
23362;SDS011;11853;48.080;11.960;2023-03-23T01:36:15;6.25;;;3.60;;
23362;SDS011;11853;48.080;11.960;2023-03-23T01:38:44;3.75;;;3.45;;
23362;SDS011;11853;48.080;11.960;2023-03-23T01:41:11;4.47;;;3.50;;
23362;SDS011;11853;48.080;11.960;2023-03-23T01:46:41;4.03;;;3.60;;
23362;SDS011;11853;48.080;11.960;2023-03-23T01:49:12;3.55;;;3.08;;
23362;SDS011;11853;48.080;11.960;2023-03-23T01:51:42;3.50;;;3.20;;
23362;SDS011;11853;48.080;11.960;2023-03-23T01:54:30;3.83;;;3.17;;
23362;SDS011;11853;48.080;11.960;2023-03-23T01:56:57;4.15;;;3.20;;
23362;SDS011;11853;48.080;11.960;2023-03-23T01:59:27;4.47;;;2.80;;
23362;SDS011;11853;48.080;11.960;2023-03-23T02:01:54;3.20;;;2.90;;
23362;SDS011;11853;48.080;11.960;2023-03-23T02:04:23;2.80;;;2.60;;
23362;SDS011;11853;48.080;11.960;2023-03-23T02:06:53;3.53;;;2.95;;
23362;SDS011;11853;48.080;11.960;2023-03-23T02:09:21;3.50;;;2.88;;
23362;SDS011;11853;48.080;11.960;2023-03-23T02:11:47;3.25;;;2.95;;
23362;SDS011;11853;48.080;11.960;2023-03-23T02:14:15;4.40;;;3.20;;
23362;SDS011;11853;48.080;11.960;2023-03-23T02:25:10;3.08;;;2.88;;
23362;SDS011;11853;48.080;11.960;2023-03-23T02:34:02;3.38;;;3.05;;
23362;SDS011;11853;48.080;11.960;2023-03-23T02:42:13;3.30;;;3.00;;
23362;SDS011;11853;48.080;11.960;2023-03-23T02:44:44;3.88;;;2.80;;
23362;SDS011;11853;48.080;11.960;2023-03-23T02:47:14;2.97;;;2.78;;
23362;SDS011;11853;48.080;11.960;2023-03-23T02:49:45;3.45;;;2.90;;
23362;SDS011;11853;48.080;11.960;2023-03-23T02:52:15;3.53;;;2.85;;
23362;SDS011;11853;48.080;11.960;2023-03-23T02:54:44;3.03;;;2.72;;
23362;SDS011;11853;48.080;11.960;2023-03-23T02:57:13;3.30;;;3.00;;
23362;SDS011;11853;48.080;11.960;2023-03-23T02:59:39;3.33;;;3.03;;
23362;SDS011;11853;48.080;11.960;2023-03-23T03:13:19;2.53;;;2.33;;
23362;SDS011;11853;48.080;11.960;2023-03-23T03:21:27;3.63;;;3.20;;
23362;SDS011;11853;48.080;11.960;2023-03-23T03:23:56;3.10;;;2.78;;
23362;SDS011;11853;48.080;11.960;2023-03-23T03:26:26;2.85;;;2.65;;
23362;SDS011;11853;48.080;11.960;2023-03-23T03:28:52;4.05;;;2.70;;
23362;SDS011;11853;48.080;11.960;2023-03-23T03:31:20;3.78;;;2.85;;
23362;SDS011;11853;48.080;11.960;2023-03-23T03:36:18;3.47;;;2.55;;
23362;SDS011;11853;48.080;11.960;2023-03-23T03:38:48;3.08;;;2.78;;
23362;SDS011;11853;48.080;11.960;2023-03-23T03:41:16;4.80;;;2.50;;
23362;SDS011;11853;48.080;11.960;2023-03-23T03:43:43;3.30;;;2.83;;
23362;SDS011;11853;48.080;11.960;2023-03-23T03:46:09;3.92;;;3.13;;
23362;SDS011;11853;48.080;11.960;2023-03-23T03:48:35;4.28;;;2.90;;
23362;SDS011;11853;48.080;11.960;2023-03-23T03:51:00;3.60;;;2.78;;
23362;SDS011;11853;48.080;11.960;2023-03-23T03:53:27;3.17;;;2.88;;
23362;SDS011;11853;48.080;11.960;2023-03-23T03:55:54;3.28;;;2.78;;
23362;SDS011;11853;48.080;11.960;2023-03-23T03:58:25;3.45;;;3.10;;
23362;SDS011;11853;48.080;11.960;2023-03-23T04:00:59;2.95;;;2.75;;
23362;SDS011;11853;48.080;11.960;2023-03-23T04:03:25;5.18;;;3.10;;
23362;SDS011;11853;48.080;11.960;2023-03-23T04:05:53;3.00;;;2.80;;
23362;SDS011;11853;48.080;11.960;2023-03-23T04:08:21;3.25;;;2.90;;
23362;SDS011;11853;48.080;11.960;2023-03-23T04:10:51;5.72;;;3.58;;
23362;SDS011;11853;48.080;11.960;2023-03-23T04:13:18;3.10;;;2.90;;
23362;SDS011;11853;48.080;11.960;2023-03-23T04:15:45;3.65;;;2.85;;
23362;SDS011;11853;48.080;11.960;2023-03-23T04:18:12;3.70;;;2.85;;
23362;SDS011;11853;48.080;11.960;2023-03-23T04:20:41;3.10;;;2.88;;
23362;SDS011;11853;48.080;11.960;2023-03-23T04:23:07;3.75;;;2.92;;
23362;SDS011;11853;48.080;11.960;2023-03-23T04:25:33;3.08;;;2.80;;
23362;SDS011;11853;48.080;11.960;2023-03-23T04:28:00;3.83;;;2.70;;
23362;SDS011;11853;48.080;11.960;2023-03-23T04:30:26;3.03;;;2.80;;
23362;SDS011;11853;48.080;11.960;2023-03-23T04:32:54;4.68;;;2.80;;
23362;SDS011;11853;48.080;11.960;2023-03-23T04:35:20;3.20;;;2.90;;
23362;SDS011;11853;48.080;11.960;2023-03-23T04:37:47;3.70;;;3.33;;
23362;SDS011;11853;48.080;11.960;2023-03-23T04:40:15;5.72;;;3.63;;
23362;SDS011;11853;48.080;11.960;2023-03-23T04:42:42;3.75;;;3.45;;
23362;SDS011;11853;48.080;11.960;2023-03-23T04:45:12;6.18;;;4.18;;
23362;SDS011;11853;48.080;11.960;2023-03-23T04:47:39;4.32;;;3.33;;
23362;SDS011;11853;48.080;11.960;2023-03-23T04:50:10;3.95;;;3.63;;
23362;SDS011;11853;48.080;11.960;2023-03-23T04:52:38;3.40;;;3.10;;
23362;SDS011;11853;48.080;11.960;2023-03-23T04:55:08;3.65;;;3.28;;
23362;SDS011;11853;48.080;11.960;2023-03-23T04:57:34;3.20;;;2.90;;
23362;SDS011;11853;48.080;11.960;2023-03-23T05:00:02;4.38;;;3.00;;
23362;SDS011;11853;48.080;11.960;2023-03-23T05:02:37;6.57;;;3.40;;
23362;SDS011;11853;48.080;11.960;2023-03-23T05:05:07;4.05;;;3.17;;
23362;SDS011;11853;48.080;11.960;2023-03-23T05:07:35;3.60;;;3.30;;
23362;SDS011;11853;48.080;11.960;2023-03-23T05:10:02;4.13;;;3.60;;
23362;SDS011;11853;48.080;11.960;2023-03-23T05:12:28;3.70;;;3.10;;
23362;SDS011;11853;48.080;11.960;2023-03-23T05:14:53;3.88;;;3.35;;
23362;SDS011;11853;48.080;11.960;2023-03-23T05:17:19;3.13;;;2.92;;
23362;SDS011;11853;48.080;11.960;2023-03-23T05:19:45;3.70;;;3.22;;
23362;SDS011;11853;48.080;11.960;2023-03-23T05:22:13;4.20;;;2.78;;
23362;SDS011;11853;48.080;11.960;2023-03-23T05:24:39;3.50;;;3.20;;
23362;SDS011;11853;48.080;11.960;2023-03-23T05:27:05;5.75;;;3.25;;
23362;SDS011;11853;48.080;11.960;2023-03-23T05:29:33;3.55;;;3.25;;
23362;SDS011;11853;48.080;11.960;2023-03-23T05:32:01;4.07;;;3.25;;
23362;SDS011;11853;48.080;11.960;2023-03-23T05:34:30;3.55;;;3.25;;
23362;SDS011;11853;48.080;11.960;2023-03-23T05:37:00;3.95;;;3.40;;
23362;SDS011;11853;48.080;11.960;2023-03-23T05:39:27;3.58;;;3.17;;
23362;SDS011;11853;48.080;11.960;2023-03-23T05:41:53;3.47;;;3.10;;
23362;SDS011;11853;48.080;11.960;2023-03-23T05:44:19;3.30;;;2.90;;
23362;SDS011;11853;48.080;11.960;2023-03-23T05:46:45;3.67;;;3.38;;
23362;SDS011;11853;48.080;11.960;2023-03-23T05:49:10;3.75;;;2.88;;
23362;SDS011;11853;48.080;11.960;2023-03-23T05:51:36;4.18;;;3.20;;
23362;SDS011;11853;48.080;11.960;2023-03-23T05:54:02;5.15;;;3.90;;
23362;SDS011;11853;48.080;11.960;2023-03-23T05:56:28;6.45;;;4.60;;
23362;SDS011;11853;48.080;11.960;2023-03-23T05:58:55;6.28;;;5.25;;
23362;SDS011;11853;48.080;11.960;2023-03-23T06:01:21;6.68;;;5.47;;
23362;SDS011;11853;48.080;11.960;2023-03-23T06:03:48;6.30;;;5.30;;
23362;SDS011;11853;48.080;11.960;2023-03-23T06:06:16;6.20;;;5.13;;
23362;SDS011;11853;48.080;11.960;2023-03-23T06:08:42;7.97;;;5.78;;
23362;SDS011;11853;48.080;11.960;2023-03-23T06:11:09;9.07;;;7.20;;
23362;SDS011;11853;48.080;11.960;2023-03-23T06:13:35;10.38;;;9.23;;
23362;SDS011;11853;48.080;11.960;2023-03-23T06:16:01;7.93;;;7.10;;
23362;SDS011;11853;48.080;11.960;2023-03-23T06:18:29;8.15;;;6.72;;
23362;SDS011;11853;48.080;11.960;2023-03-23T06:20:54;8.00;;;6.80;;
23362;SDS011;11853;48.080;11.960;2023-03-23T06:23:20;7.78;;;6.43;;
23362;SDS011;11853;48.080;11.960;2023-03-23T06:25:46;6.47;;;5.88;;
23362;SDS011;11853;48.080;11.960;2023-03-23T06:28:11;5.88;;;4.72;;
23362;SDS011;11853;48.080;11.960;2023-03-23T06:30:37;5.38;;;3.63;;
23362;SDS011;11853;48.080;11.960;2023-03-23T06:33:03;4.05;;;3.65;;
23362;SDS011;11853;48.080;11.960;2023-03-23T06:35:30;4.95;;;3.45;;
23362;SDS011;11853;48.080;11.960;2023-03-23T06:37:57;5.95;;;3.40;;
23362;SDS011;11853;48.080;11.960;2023-03-23T06:40:26;5.25;;;3.17;;
23362;SDS011;11853;48.080;11.960;2023-03-23T06:42:53;3.97;;;2.90;;
23362;SDS011;11853;48.080;11.960;2023-03-23T06:45:19;4.05;;;3.53;;
23362;SDS011;11853;48.080;11.960;2023-03-23T06:47:45;3.88;;;3.30;;
23362;SDS011;11853;48.080;11.960;2023-03-23T06:50:14;3.60;;;2.80;;
23362;SDS011;11853;48.080;11.960;2023-03-23T06:52:44;2.72;;;2.53;;
23362;SDS011;11853;48.080;11.960;2023-03-23T06:55:11;3.72;;;2.65;;
23362;SDS011;11853;48.080;11.960;2023-03-23T06:57:37;5.03;;;3.22;;
23362;SDS011;11853;48.080;11.960;2023-03-23T07:00:03;4.25;;;3.30;;
23362;SDS011;11853;48.080;11.960;2023-03-23T07:02:31;3.95;;;3.03;;
23362;SDS011;11853;48.080;11.960;2023-03-23T07:04:56;4.85;;;3.97;;
23362;SDS011;11853;48.080;11.960;2023-03-23T07:07:22;4.55;;;3.08;;
23362;SDS011;11853;48.080;11.960;2023-03-23T07:09:48;5.65;;;3.60;;
23362;SDS011;11853;48.080;11.960;2023-03-23T07:12:13;6.60;;;3.67;;
23362;SDS011;11853;48.080;11.960;2023-03-23T07:14:39;3.92;;;3.33;;
23362;SDS011;11853;48.080;11.960;2023-03-23T07:17:07;4.35;;;2.88;;
23362;SDS011;11853;48.080;11.960;2023-03-23T07:19:34;3.13;;;2.60;;
23362;SDS011;11853;48.080;11.960;2023-03-23T07:22:01;3.58;;;2.63;;
23362;SDS011;11853;48.080;11.960;2023-03-23T07:24:26;6.90;;;3.05;;
23362;SDS011;11853;48.080;11.960;2023-03-23T07:26:52;3.10;;;2.80;;
23362;SDS011;11853;48.080;11.960;2023-03-23T07:29:18;4.18;;;3.75;;
23362;SDS011;11853;48.080;11.960;2023-03-23T07:31:44;4.72;;;2.80;;
23362;SDS011;11853;48.080;11.960;2023-03-23T07:34:09;4.00;;;2.55;;
23362;SDS011;11853;48.080;11.960;2023-03-23T07:36:35;2.55;;;2.35;;
23362;SDS011;11853;48.080;11.960;2023-03-23T07:39:03;4.80;;;2.80;;
23362;SDS011;11853;48.080;11.960;2023-03-23T07:41:30;2.75;;;2.55;;
23362;SDS011;11853;48.080;11.960;2023-03-23T07:43:57;3.65;;;2.60;;
23362;SDS011;11853;48.080;11.960;2023-03-23T07:46:22;3.63;;;2.55;;
23362;SDS011;11853;48.080;11.960;2023-03-23T07:48:48;3.50;;;2.85;;
23362;SDS011;11853;48.080;11.960;2023-03-23T07:51:14;4.28;;;3.20;;
23362;SDS011;11853;48.080;11.960;2023-03-23T07:53:44;4.22;;;3.42;;
23362;SDS011;11853;48.080;11.960;2023-03-23T07:56:15;3.00;;;2.53;;
23362;SDS011;11853;48.080;11.960;2023-03-23T07:58:53;2.95;;;2.70;;
23362;SDS011;11853;48.080;11.960;2023-03-23T08:01:19;6.25;;;2.80;;
23362;SDS011;11853;48.080;11.960;2023-03-23T08:03:52;3.42;;;3.13;;
23362;SDS011;11853;48.080;11.960;2023-03-23T08:06:21;4.95;;;3.38;;
23362;SDS011;11853;48.080;11.960;2023-03-23T08:09:07;5.15;;;3.40;;
23362;SDS011;11853;48.080;11.960;2023-03-23T08:12:09;5.35;;;3.50;;
23362;SDS011;11853;48.080;11.960;2023-03-23T08:14:35;5.53;;;3.42;;
23362;SDS011;11853;48.080;11.960;2023-03-23T08:17:03;3.72;;;3.40;;
23362;SDS011;11853;48.080;11.960;2023-03-23T08:19:32;4.00;;;3.58;;
23362;SDS011;11853;48.080;11.960;2023-03-23T08:22:02;6.80;;;3.50;;
23362;SDS011;11853;48.080;11.960;2023-03-23T08:24:31;6.60;;;4.20;;
23362;SDS011;11853;48.080;11.960;2023-03-23T08:26:58;4.93;;;3.60;;
23362;SDS011;11853;48.080;11.960;2023-03-23T08:29:24;3.40;;;3.10;;
23362;SDS011;11853;48.080;11.960;2023-03-23T08:31:49;4.60;;;3.20;;
23362;SDS011;11853;48.080;11.960;2023-03-23T08:34:15;4.22;;;3.13;;
23362;SDS011;11853;48.080;11.960;2023-03-23T08:36:42;4.28;;;2.72;;
23362;SDS011;11853;48.080;11.960;2023-03-23T08:39:09;5.07;;;3.65;;
23362;SDS011;11853;48.080;11.960;2023-03-23T08:41:45;4.68;;;2.97;;
23362;SDS011;11853;48.080;11.960;2023-03-23T08:44:11;5.18;;;3.03;;
23362;SDS011;11853;48.080;11.960;2023-03-23T08:46:37;4.30;;;3.35;;
23362;SDS011;11853;48.080;11.960;2023-03-23T08:49:04;4.43;;;3.38;;
23362;SDS011;11853;48.080;11.960;2023-03-23T08:51:30;3.75;;;3.33;;
23362;SDS011;11853;48.080;11.960;2023-03-23T08:53:57;4.63;;;3.20;;
23362;SDS011;11853;48.080;11.960;2023-03-23T08:56:25;6.93;;;4.70;;
23362;SDS011;11853;48.080;11.960;2023-03-23T08:58:51;4.05;;;3.75;;
23362;SDS011;11853;48.080;11.960;2023-03-23T09:01:16;5.13;;;4.03;;
23362;SDS011;11853;48.080;11.960;2023-03-23T09:03:42;5.57;;;3.63;;
23362;SDS011;11853;48.080;11.960;2023-03-23T09:06:08;3.55;;;2.92;;
23362;SDS011;11853;48.080;11.960;2023-03-23T09:08:36;4.22;;;3.35;;
23362;SDS011;11853;48.080;11.960;2023-03-23T09:11:02;5.20;;;3.72;;
23362;SDS011;11853;48.080;11.960;2023-03-23T09:13:30;5.65;;;3.80;;
23362;SDS011;11853;48.080;11.960;2023-03-23T09:15:56;4.13;;;3.78;;
23362;SDS011;11853;48.080;11.960;2023-03-23T09:18:22;4.82;;;3.70;;
23362;SDS011;11853;48.080;11.960;2023-03-23T09:20:51;3.90;;;3.55;;
23362;SDS011;11853;48.080;11.960;2023-03-23T09:23:18;4.05;;;3.53;;
23362;SDS011;11853;48.080;11.960;2023-03-23T09:25:45;4.07;;;3.50;;
23362;SDS011;11853;48.080;11.960;2023-03-23T09:28:12;6.28;;;4.30;;
23362;SDS011;11853;48.080;11.960;2023-03-23T09:30:38;3.92;;;3.50;;
23362;SDS011;11853;48.080;11.960;2023-03-23T09:33:06;4.38;;;3.97;;
23362;SDS011;11853;48.080;11.960;2023-03-23T09:35:33;4.80;;;4.30;;
23362;SDS011;11853;48.080;11.960;2023-03-23T09:38:00;7.72;;;3.75;;
23362;SDS011;11853;48.080;11.960;2023-03-23T09:40:32;4.28;;;3.88;;
23362;SDS011;11853;48.080;11.960;2023-03-23T09:45:43;5.13;;;4.63;;
23362;SDS011;11853;48.080;11.960;2023-03-23T09:48:51;5.65;;;4.50;;
23362;SDS011;11853;48.080;11.960;2023-03-23T09:54:16;5.00;;;4.50;;
23362;SDS011;11853;48.080;11.960;2023-03-23T09:56:47;5.47;;;4.57;;
23362;SDS011;11853;48.080;11.960;2023-03-23T10:02:21;4.20;;;3.80;;
23362;SDS011;11853;48.080;11.960;2023-03-23T10:05:18;5.32;;;4.00;;
23362;SDS011;11853;48.080;11.960;2023-03-23T10:07:54;4.13;;;3.72;;
23362;SDS011;11853;48.080;11.960;2023-03-23T10:10:21;5.47;;;4.15;;
23362;SDS011;11853;48.080;11.960;2023-03-23T10:15:55;4.00;;;3.63;;
23362;SDS011;11853;48.080;11.960;2023-03-23T10:18:47;5.07;;;3.85;;
23362;SDS011;11853;48.080;11.960;2023-03-23T10:21:32;4.50;;;3.35;;
23362;SDS011;11853;48.080;11.960;2023-03-23T10:24:03;5.50;;;3.47;;
23362;SDS011;11853;48.080;11.960;2023-03-23T10:31:59;3.90;;;3.50;;
23362;SDS011;11853;48.080;11.960;2023-03-23T10:37:36;3.78;;;2.88;;
23362;SDS011;11853;48.080;11.960;2023-03-23T10:40:06;4.43;;;3.60;;
23362;SDS011;11853;48.080;11.960;2023-03-23T10:42:41;4.88;;;3.00;;
23362;SDS011;11853;48.080;11.960;2023-03-23T10:48:09;5.03;;;2.90;;
23362;SDS011;11853;48.080;11.960;2023-03-23T10:50:43;3.78;;;2.78;;
23362;SDS011;11853;48.080;11.960;2023-03-23T10:53:34;3.13;;;2.88;;
23362;SDS011;11853;48.080;11.960;2023-03-23T10:56:03;3.50;;;3.20;;
23362;SDS011;11853;48.080;11.960;2023-03-23T10:58:31;3.67;;;2.65;;
23362;SDS011;11853;48.080;11.960;2023-03-23T11:00:59;4.57;;;2.67;;
23362;SDS011;11853;48.080;11.960;2023-03-23T11:03:32;3.38;;;2.40;;
23362;SDS011;11853;48.080;11.960;2023-03-23T11:06:11;3.28;;;2.58;;
23362;SDS011;11853;48.080;11.960;2023-03-23T11:08:58;2.45;;;2.10;;
23362;SDS011;11853;48.080;11.960;2023-03-23T11:11:29;2.45;;;2.05;;
23362;SDS011;11853;48.080;11.960;2023-03-23T11:13:57;2.22;;;2.00;;
23362;SDS011;11853;48.080;11.960;2023-03-23T11:16:31;2.22;;;2.03;;
23362;SDS011;11853;48.080;11.960;2023-03-23T11:18:59;2.22;;;2.03;;
23362;SDS011;11853;48.080;11.960;2023-03-23T11:21:36;2.65;;;2.22;;
23362;SDS011;11853;48.080;11.960;2023-03-23T11:24:03;3.55;;;3.25;;
23362;SDS011;11853;48.080;11.960;2023-03-23T11:26:31;4.15;;;3.53;;
23362;SDS011;11853;48.080;11.960;2023-03-23T11:29:03;2.88;;;2.67;;
23362;SDS011;11853;48.080;11.960;2023-03-23T11:31:39;2.40;;;2.20;;
23362;SDS011;11853;48.080;11.960;2023-03-23T11:34:18;2.03;;;1.85;;
23362;SDS011;11853;48.080;11.960;2023-03-23T11:36:48;1.83;;;1.73;;
23362;SDS011;11853;48.080;11.960;2023-03-23T11:39:35;2.38;;;1.80;;
23362;SDS011;11853;48.080;11.960;2023-03-23T11:42:19;1.80;;;1.70;;
23362;SDS011;11853;48.080;11.960;2023-03-23T11:44:47;2.05;;;1.83;;
23362;SDS011;11853;48.080;11.960;2023-03-23T11:49:50;2.75;;;2.40;;
23362;SDS011;11853;48.080;11.960;2023-03-23T11:55:03;2.35;;;1.90;;
23362;SDS011;11853;48.080;11.960;2023-03-23T11:57:46;2.50;;;2.30;;
23362;SDS011;11853;48.080;11.960;2023-03-23T12:00:19;2.40;;;2.20;;
23362;SDS011;11853;48.080;11.960;2023-03-23T12:08:40;2.83;;;2.58;;
23362;SDS011;11853;48.080;11.960;2023-03-23T12:11:18;3.88;;;3.00;;
23362;SDS011;11853;48.080;11.960;2023-03-23T12:14:09;3.20;;;2.90;;
23362;SDS011;11853;48.080;11.960;2023-03-23T12:16:40;4.15;;;3.35;;
23362;SDS011;11853;48.080;11.960;2023-03-23T12:26:59;6.97;;;4.25;;
23362;SDS011;11853;48.080;11.960;2023-03-23T12:29:42;10.40;;;6.53;;
23362;SDS011;11853;48.080;11.960;2023-03-23T12:32:35;7.85;;;5.97;;
23362;SDS011;11853;48.080;11.960;2023-03-23T12:35:32;4.32;;;3.92;;
23362;SDS011;11853;48.080;11.960;2023-03-23T12:46:06;4.20;;;3.75;;
23362;SDS011;11853;48.080;11.960;2023-03-23T12:48:56;4.15;;;3.45;;
23362;SDS011;11853;48.080;11.960;2023-03-23T12:58:09;3.95;;;3.35;;
23362;SDS011;11853;48.080;11.960;2023-03-23T13:06:19;3.45;;;2.90;;
23362;SDS011;11853;48.080;11.960;2023-03-23T13:08:56;5.03;;;3.38;;
23362;SDS011;11853;48.080;11.960;2023-03-23T13:11:29;2.50;;;2.30;;
23362;SDS011;11853;48.080;11.960;2023-03-23T13:16:35;3.03;;;2.60;;
23362;SDS011;11853;48.080;11.960;2023-03-23T13:19:46;4.35;;;3.10;;
23362;SDS011;11853;48.080;11.960;2023-03-23T13:22:43;3.58;;;2.75;;
23362;SDS011;11853;48.080;11.960;2023-03-23T13:28:15;6.93;;;5.50;;
23362;SDS011;11853;48.080;11.960;2023-03-23T13:33:39;11.23;;;7.10;;
23362;SDS011;11853;48.080;11.960;2023-03-23T13:36:12;17.92;;;10.52;;
23362;SDS011;11853;48.080;11.960;2023-03-23T13:38:49;5.35;;;3.83;;
23362;SDS011;11853;48.080;11.960;2023-03-23T13:41:17;3.50;;;3.20;;
23362;SDS011;11853;48.080;11.960;2023-03-23T13:43:45;3.17;;;2.80;;
23362;SDS011;11853;48.080;11.960;2023-03-23T13:46:12;3.38;;;2.80;;
23362;SDS011;11853;48.080;11.960;2023-03-23T13:49:02;9.40;;;3.10;;
23362;SDS011;11853;48.080;11.960;2023-03-23T13:56:47;3.55;;;2.30;;
23362;SDS011;11853;48.080;11.960;2023-03-23T14:01:51;2.80;;;2.50;;
23362;SDS011;11853;48.080;11.960;2023-03-23T14:04:21;4.88;;;3.15;;
23362;SDS011;11853;48.080;11.960;2023-03-23T14:06:49;3.63;;;2.33;;
23362;SDS011;11853;48.080;11.960;2023-03-23T14:09:16;2.45;;;1.90;;
23362;SDS011;11853;48.080;11.960;2023-03-23T14:12:04;3.70;;;1.92;;
23362;SDS011;11853;48.080;11.960;2023-03-23T14:14:46;1.75;;;1.65;;
23362;SDS011;11853;48.080;11.960;2023-03-23T14:17:24;2.40;;;2.10;;
23362;SDS011;11853;48.080;11.960;2023-03-23T14:19:52;3.08;;;2.20;;
23362;SDS011;11853;48.080;11.960;2023-03-23T14:22:33;2.53;;;1.98;;
23362;SDS011;11853;48.080;11.960;2023-03-23T14:25:02;1.80;;;1.52;;
23362;SDS011;11853;48.080;11.960;2023-03-23T14:27:35;2.60;;;1.80;;
23362;SDS011;11853;48.080;11.960;2023-03-23T14:30:03;1.83;;;1.67;;
23362;SDS011;11853;48.080;11.960;2023-03-23T14:32:32;2.30;;;1.83;;
23362;SDS011;11853;48.080;11.960;2023-03-23T14:34:59;2.97;;;1.98;;
23362;SDS011;11853;48.080;11.960;2023-03-23T14:37:30;4.75;;;1.95;;
23362;SDS011;11853;48.080;11.960;2023-03-23T14:39:57;2.15;;;1.65;;
23362;SDS011;11853;48.080;11.960;2023-03-23T14:42:28;3.00;;;1.75;;
23362;SDS011;11853;48.080;11.960;2023-03-23T14:44:56;3.85;;;2.10;;
23362;SDS011;11853;48.080;11.960;2023-03-23T14:49:56;3.55;;;1.90;;
23362;SDS011;11853;48.080;11.960;2023-03-23T14:52:24;3.88;;;2.13;;
23362;SDS011;11853;48.080;11.960;2023-03-23T14:54:54;1.97;;;1.77;;
23362;SDS011;11853;48.080;11.960;2023-03-23T14:59:48;3.63;;;3.17;;
23362;SDS011;11853;48.080;11.960;2023-03-23T15:02:36;3.55;;;2.22;;
23362;SDS011;11853;48.080;11.960;2023-03-23T15:05:25;4.10;;;2.40;;
23362;SDS011;11853;48.080;11.960;2023-03-23T15:07:54;2.83;;;2.35;;
23362;SDS011;11853;48.080;11.960;2023-03-23T15:10:25;3.60;;;1.63;;
23362;SDS011;11853;48.080;11.960;2023-03-23T15:12:50;2.22;;;1.38;;
23362;SDS011;11853;48.080;11.960;2023-03-23T15:17:52;3.35;;;2.10;;
23362;SDS011;11853;48.080;11.960;2023-03-23T15:20:20;2.25;;;1.52;;
23362;SDS011;11853;48.080;11.960;2023-03-23T15:22:49;1.90;;;1.80;;
23362;SDS011;11853;48.080;11.960;2023-03-23T15:25:22;3.20;;;1.70;;
23362;SDS011;11853;48.080;11.960;2023-03-23T15:27:55;1.95;;;1.48;;
23362;SDS011;11853;48.080;11.960;2023-03-23T15:30:31;2.83;;;1.77;;
23362;SDS011;11853;48.080;11.960;2023-03-23T15:33:00;4.15;;;2.85;;
23362;SDS011;11853;48.080;11.960;2023-03-23T15:35:35;2.88;;;2.67;;
23362;SDS011;11853;48.080;11.960;2023-03-23T15:38:14;2.28;;;2.08;;
23362;SDS011;11853;48.080;11.960;2023-03-23T15:40:52;2.80;;;2.22;;
23362;SDS011;11853;48.080;11.960;2023-03-23T15:43:21;1.70;;;1.48;;
23362;SDS011;11853;48.080;11.960;2023-03-23T15:48:47;2.00;;;1.90;;
23362;SDS011;11853;48.080;11.960;2023-03-23T15:51:16;1.85;;;1.60;;
23362;SDS011;11853;48.080;11.960;2023-03-23T15:53:43;3.83;;;1.73;;
23362;SDS011;11853;48.080;11.960;2023-03-23T15:56:10;1.52;;;1.42;;
23362;SDS011;11853;48.080;11.960;2023-03-23T15:58:37;1.95;;;1.85;;
23362;SDS011;11853;48.080;11.960;2023-03-23T16:01:13;2.22;;;2.03;;
23362;SDS011;11853;48.080;11.960;2023-03-23T16:06:09;2.08;;;1.88;;
23362;SDS011;11853;48.080;11.960;2023-03-23T16:08:37;1.88;;;1.70;;
23362;SDS011;11853;48.080;11.960;2023-03-23T16:11:06;2.03;;;1.73;;
23362;SDS011;11853;48.080;11.960;2023-03-23T16:13:33;2.97;;;1.70;;
23362;SDS011;11853;48.080;11.960;2023-03-23T16:15:59;3.63;;;1.67;;
23362;SDS011;11853;48.080;11.960;2023-03-23T16:18:25;2.50;;;1.67;;
23362;SDS011;11853;48.080;11.960;2023-03-23T16:20:50;3.70;;;1.90;;
23362;SDS011;11853;48.080;11.960;2023-03-23T16:23:16;2.30;;;2.10;;
23362;SDS011;11853;48.080;11.960;2023-03-23T16:25:41;2.92;;;2.50;;
23362;SDS011;11853;48.080;11.960;2023-03-23T16:28:08;3.40;;;2.70;;
23362;SDS011;11853;48.080;11.960;2023-03-23T16:30:36;3.63;;;2.10;;
23362;SDS011;11853;48.080;11.960;2023-03-23T16:33:02;3.45;;;2.20;;
23362;SDS011;11853;48.080;11.960;2023-03-23T16:35:28;3.40;;;2.35;;
23362;SDS011;11853;48.080;11.960;2023-03-23T16:37:54;3.33;;;2.00;;
23362;SDS011;11853;48.080;11.960;2023-03-23T16:40:21;2.95;;;1.98;;
23362;SDS011;11853;48.080;11.960;2023-03-23T16:42:47;2.17;;;1.88;;
23362;SDS011;11853;48.080;11.960;2023-03-23T16:45:14;4.95;;;2.40;;
23362;SDS011;11853;48.080;11.960;2023-03-23T16:47:41;3.45;;;2.03;;
23362;SDS011;11853;48.080;11.960;2023-03-23T16:50:08;2.13;;;1.90;;
23362;SDS011;11853;48.080;11.960;2023-03-23T16:52:36;1.88;;;1.65;;
23362;SDS011;11853;48.080;11.960;2023-03-23T16:55:06;2.20;;;1.70;;
23362;SDS011;11853;48.080;11.960;2023-03-23T16:57:33;3.05;;;2.00;;
23362;SDS011;11853;48.080;11.960;2023-03-23T17:00:03;2.00;;;1.83;;
23362;SDS011;11853;48.080;11.960;2023-03-23T17:02:31;5.55;;;3.95;;
23362;SDS011;11853;48.080;11.960;2023-03-23T17:04:57;3.45;;;3.15;;